createdAt,value
2023-03-25T00:01:52.015Z,12.27
2023-03-25T00:04:21.225Z,10.93
2023-03-25T00:06:49.159Z,6.00
2023-03-25T00:09:17.044Z,9.73
2023-03-25T00:11:44.799Z,13.55
2023-03-25T00:14:15.162Z,10.25
2023-03-25T00:16:42.953Z,10.88
2023-03-25T00:19:10.745Z,10.73
2023-03-25T00:21:39.899Z,9.02
2023-03-25T00:24:08.048Z,10.10
2023-03-25T00:26:35.793Z,12.43
2023-03-25T00:29:03.578Z,10.10
2023-03-25T00:31:31.391Z,8.82
2023-03-25T00:33:59.810Z,10.60
2023-03-25T00:36:27.687Z,14.73
2023-03-25T00:38:56.849Z,10.00
2023-03-25T00:41:27.442Z,9.98
2023-03-25T00:43:57.787Z,11.05
2023-03-25T00:46:27.818Z,8.68
2023-03-25T00:48:56.004Z,10.52
2023-03-25T00:51:25.808Z,9.50
2023-03-25T00:53:56.864Z,8.93
2023-03-25T00:56:25.492Z,13.77
2023-03-25T00:58:53.598Z,9.35
2023-03-25T01:01:27.077Z,10.18
2023-03-25T01:03:58.625Z,11.35
2023-03-25T01:06:32.285Z,15.30
2023-03-25T01:09:04.674Z,10.77
2023-03-25T01:11:34.931Z,12.27
2023-03-25T01:14:04.555Z,11.13
2023-03-25T01:16:33.022Z,10.27
2023-03-25T01:19:00.837Z,9.90
2023-03-25T01:21:28.615Z,9.05
2023-03-25T01:23:56.384Z,10.75
2023-03-25T01:26:25.640Z,10.10
2023-03-25T01:28:53.964Z,11.07
2023-03-25T01:31:23.072Z,11.27
2023-03-25T01:33:51.095Z,10.65
2023-03-25T01:36:21.211Z,12.35
2023-03-25T01:38:50.578Z,8.95
2023-03-25T01:41:18.931Z,10.55
2023-03-25T01:44:07.369Z,9.48
2023-03-25T01:46:35.663Z,9.27
2023-03-25T01:49:08.202Z,12.63
2023-03-25T01:51:39.880Z,8.35
2023-03-25T01:54:07.983Z,9.70
2023-03-25T01:56:39.909Z,13.55
2023-03-25T01:59:11.194Z,11.43
2023-03-25T02:01:38.948Z,15.65
2023-03-25T02:04:12.002Z,13.35
2023-03-25T02:06:44.178Z,12.55
2023-03-25T02:09:14.595Z,8.95
2023-03-25T02:11:42.602Z,10.40
2023-03-25T02:14:14.870Z,11.07
2023-03-25T02:16:47.652Z,10.70
2023-03-25T02:19:40.978Z,12.23
2023-03-25T02:22:38.028Z,10.50
2023-03-25T02:25:23.757Z,7.70
2023-03-25T02:28:02.039Z,11.45
2023-03-25T02:31:00.951Z,8.90
2023-03-25T02:33:41.126Z,9.80
2023-03-25T02:36:41.718Z,12.65
2023-03-25T02:41:48.813Z,12.32
2023-03-25T02:44:22.884Z,11.98
2023-03-25T02:46:55.645Z,11.85
2023-03-25T02:49:29.163Z,10.65
2023-03-25T02:52:02.789Z,8.23
2023-03-25T02:54:34.419Z,8.30
2023-03-25T02:57:05.414Z,11.57
2023-03-25T02:59:34.165Z,12.85
2023-03-25T03:02:06.215Z,7.47
2023-03-25T03:04:34.152Z,14.23
2023-03-25T03:07:02.131Z,9.18
2023-03-25T03:09:41.050Z,9.85
2023-03-25T03:12:21.465Z,8.40
2023-03-25T03:15:01.512Z,12.45
2023-03-25T03:17:39.259Z,10.85
2023-03-25T03:20:18.007Z,11.32
2023-03-25T03:22:52.570Z,9.00
2023-03-25T03:25:29.908Z,13.05
2023-03-25T03:30:40.738Z,10.98
2023-03-25T03:33:13.509Z,12.30
2023-03-25T03:35:50.292Z,13.35
2023-03-25T03:38:22.038Z,13.68
2023-03-25T03:40:54.079Z,11.50
2023-03-25T03:43:28.256Z,9.45
2023-03-25T03:46:00.446Z,10.82
2023-03-25T03:48:32.324Z,13.63
2023-03-25T03:51:07.820Z,14.25
2023-03-25T03:53:39.196Z,8.85
2023-03-25T03:56:13.039Z,13.02
2023-03-25T03:58:42.814Z,10.75
2023-03-25T04:01:14.402Z,13.98
2023-03-25T04:03:48.589Z,14.05
2023-03-25T04:06:24.379Z,14.95
2023-03-25T04:08:58.979Z,12.93
2023-03-25T04:11:34.265Z,14.90
2023-03-25T04:14:04.286Z,16.35
2023-03-25T04:16:34.606Z,12.50
2023-03-25T04:19:04.234Z,12.25
2023-03-25T04:21:32.129Z,12.40
2023-03-25T04:24:01.507Z,11.50
2023-03-25T04:26:34.198Z,12.00
2023-03-25T04:29:03.003Z,12.05
2023-03-25T04:31:31.886Z,13.75
2023-03-25T04:34:00.497Z,14.68
2023-03-25T04:36:29.685Z,9.82
2023-03-25T04:38:57.977Z,11.43
2023-03-25T04:41:26.031Z,16.52
2023-03-25T04:43:55.224Z,12.05
2023-03-25T04:46:23.136Z,16.27
2023-03-25T04:48:50.966Z,15.73
2023-03-25T04:51:19.638Z,10.88
2023-03-25T04:53:47.442Z,14.88
2023-03-25T04:56:17.731Z,16.10
2023-03-25T04:58:46.218Z,17.17
2023-03-25T05:01:23.296Z,11.93
2023-03-25T05:03:51.215Z,11.65
2023-03-25T05:06:19.360Z,15.38
2023-03-25T05:08:47.111Z,16.98
2023-03-25T05:11:14.911Z,15.38
2023-03-25T05:13:42.640Z,12.40
2023-03-25T05:16:10.464Z,14.95
2023-03-25T05:18:39.738Z,13.23
2023-03-25T05:21:08.451Z,12.20
2023-03-25T05:23:36.234Z,13.85
2023-03-25T05:26:04.510Z,11.20
2023-03-25T05:28:32.294Z,12.73
2023-03-25T05:31:00.431Z,12.20
2023-03-25T05:33:28.328Z,11.75
2023-03-25T05:35:57.475Z,11.40
2023-03-25T05:38:25.561Z,10.45
2023-03-25T05:40:53.563Z,20.95
2023-03-25T05:43:22.948Z,16.48
2023-03-25T05:45:51.198Z,12.48
2023-03-25T05:48:19.124Z,15.90
2023-03-25T05:50:46.933Z,16.15
2023-03-25T05:53:16.588Z,19.13
2023-03-25T05:55:44.456Z,18.63
2023-03-25T05:58:12.184Z,18.33
2023-03-25T06:00:39.982Z,15.32
2023-03-25T06:03:08.961Z,16.27
2023-03-25T06:05:39.596Z,17.02
2023-03-25T06:08:07.444Z,14.02
2023-03-25T06:10:36.761Z,15.23
2023-03-25T06:13:04.573Z,14.98
2023-03-25T06:15:39.013Z,18.10
2023-03-25T06:18:07.225Z,17.40
2023-03-25T06:20:35.244Z,16.45
2023-03-25T06:23:03.072Z,18.83
2023-03-25T06:25:31.268Z,16.92
2023-03-25T06:28:03.578Z,15.98
2023-03-25T06:30:31.660Z,15.48
2023-03-25T06:33:03.414Z,16.38
2023-03-25T06:35:31.323Z,13.43
2023-03-25T06:37:59.103Z,16.80
2023-03-25T06:40:45.004Z,12.63
2023-03-25T06:43:14.303Z,15.88
2023-03-25T06:46:02.126Z,14.25
2023-03-25T06:48:46.124Z,17.38
2023-03-25T06:51:13.918Z,15.15
2023-03-25T06:53:41.804Z,13.20
2023-03-25T06:56:10.318Z,12.85
2023-03-25T06:58:41.510Z,13.13
2023-03-25T07:01:09.255Z,15.75
2023-03-25T07:03:39.290Z,12.43
2023-03-25T07:06:07.946Z,13.77
2023-03-25T07:08:35.890Z,15.07
2023-03-25T07:11:05.409Z,13.65
2023-03-25T07:13:33.196Z,13.63
2023-03-25T07:16:03.241Z,13.13
2023-03-25T07:18:31.441Z,15.50
2023-03-25T07:20:59.693Z,15.80
2023-03-25T07:23:27.883Z,14.25
2023-03-25T07:25:56.952Z,10.48
2023-03-25T07:28:25.174Z,15.20
2023-03-25T07:30:52.964Z,12.23
2023-03-25T07:33:22.230Z,19.70
2023-03-25T07:35:50.418Z,14.93
2023-03-25T07:38:18.432Z,16.55
2023-03-25T07:40:49.886Z,17.00
2023-03-25T07:43:18.244Z,15.45
2023-03-25T07:46:06.663Z,14.05
2023-03-25T07:48:36.765Z,14.50
2023-03-25T07:51:05.249Z,15.80
2023-03-25T07:53:33.021Z,16.35
2023-03-25T07:56:00.955Z,15.88
2023-03-25T07:58:28.808Z,12.70
2023-03-25T08:00:57.971Z,10.95
2023-03-25T08:03:28.113Z,12.00
2023-03-25T08:05:57.342Z,14.32
2023-03-25T08:08:25.181Z,16.50
2023-03-25T08:10:53.421Z,18.38
2023-03-25T08:13:21.274Z,21.80
2023-03-25T08:15:49.622Z,16.95
2023-03-25T08:18:17.656Z,14.55
2023-03-25T08:20:45.419Z,16.73
2023-03-25T08:23:19.882Z,21.45
2023-03-25T08:25:50.404Z,14.32
2023-03-25T08:28:22.990Z,23.85
2023-03-25T08:30:55.251Z,15.55
2023-03-25T08:33:27.348Z,15.93
2023-03-25T08:35:58.295Z,19.80
2023-03-25T08:38:34.305Z,17.98
2023-03-25T08:41:02.911Z,17.27
2023-03-25T08:43:30.708Z,16.52
2023-03-25T08:45:58.497Z,15.60
2023-03-25T08:48:26.269Z,21.95
2023-03-25T08:50:54.368Z,20.80
2023-03-25T08:53:22.114Z,23.20
2023-03-25T08:55:53.852Z,18.58
2023-03-25T08:58:22.141Z,22.23
2023-03-25T09:00:53.503Z,15.13
2023-03-25T09:03:21.928Z,22.95
2023-03-25T09:05:49.890Z,21.20
2023-03-25T09:08:17.831Z,16.30
2023-03-25T09:10:45.637Z,19.77
2023-03-25T09:13:14.965Z,20.27
2023-03-25T09:15:43.087Z,16.85
2023-03-25T09:18:11.183Z,21.70
2023-03-25T09:20:38.944Z,20.45
2023-03-25T09:23:06.891Z,20.65
2023-03-25T09:25:34.907Z,21.05
2023-03-25T09:28:02.703Z,17.85
2023-03-25T09:30:32.146Z,18.27
2023-03-25T09:32:59.970Z,15.15
2023-03-25T09:35:28.125Z,13.82
2023-03-25T09:37:55.977Z,16.17
2023-03-25T09:40:24.087Z,18.40
2023-03-25T09:43:04.256Z,22.83
2023-03-25T09:45:37.099Z,19.38
2023-03-25T09:48:13.086Z,21.83
2023-03-25T09:50:43.022Z,20.92
2023-03-25T09:53:21.275Z,16.13
2023-03-25T09:55:50.273Z,15.40
2023-03-25T09:58:29.807Z,18.65
2023-03-25T10:01:05.574Z,17.52
2023-03-25T10:03:45.830Z,17.85
2023-03-25T10:06:19.710Z,20.92
2023-03-25T10:09:11.018Z,19.25
2023-03-25T10:11:50.864Z,17.17
2023-03-25T10:14:22.724Z,21.85
2023-03-25T10:17:05.437Z,22.30
2023-03-25T10:19:51.123Z,18.85
2023-03-25T10:22:24.383Z,23.35
2023-03-25T10:24:56.091Z,17.13
2023-03-25T10:27:28.155Z,15.93
2023-03-25T10:30:00.330Z,17.13
2023-03-25T10:32:35.828Z,19.95
2023-03-25T10:35:07.088Z,19.10
2023-03-25T10:37:39.419Z,14.35
2023-03-25T10:40:21.004Z,17.08
2023-03-25T10:43:11.595Z,18.50
2023-03-25T10:45:41.101Z,15.52
2023-03-25T10:48:14.331Z,15.32
2023-03-25T10:50:43.661Z,19.63
2023-03-25T10:53:21.980Z,15.45
2023-03-25T10:55:53.755Z,17.48
2023-03-25T10:58:21.702Z,18.08
2023-03-25T11:00:49.509Z,14.10
2023-03-25T11:03:23.355Z,19.08
2023-03-25T11:05:52.809Z,18.60
2023-03-25T11:08:25.460Z,13.45
2023-03-25T11:10:57.841Z,13.90
2023-03-25T11:15:56.001Z,20.88
2023-03-25T11:18:29.481Z,16.73
2023-03-25T11:21:02.579Z,21.60
2023-03-25T11:23:35.445Z,17.52
2023-03-25T11:26:06.641Z,18.17
2023-03-25T11:31:17.714Z,14.07
2023-03-25T11:34:01.009Z,15.27
2023-03-25T11:36:30.773Z,13.85
2023-03-25T11:39:01.782Z,14.90
2023-03-25T11:41:32.930Z,13.75
2023-03-25T11:46:28.557Z,17.13
2023-03-25T11:48:57.768Z,16.33
2023-03-25T11:51:29.370Z,12.00
2023-03-25T11:54:00.325Z,14.75
2023-03-25T11:56:33.878Z,13.25
2023-03-25T11:59:03.215Z,15.43
2023-03-25T12:01:39.555Z,13.55
2023-03-25T12:04:15.862Z,13.48
2023-03-25T12:06:58.935Z,20.17
2023-03-25T12:12:23.024Z,12.68
2023-03-25T12:15:02.206Z,13.50
2023-03-25T12:17:44.649Z,16.10
2023-03-25T12:20:24.428Z,12.05
2023-03-25T12:23:01.852Z,14.25
2023-03-25T12:25:40.079Z,11.23
2023-03-25T12:28:24.106Z,12.88
2023-03-25T12:31:01.276Z,11.52
2023-03-25T12:33:46.182Z,13.00
2023-03-25T12:36:24.737Z,12.75
2023-03-25T12:39:03.928Z,12.80
2023-03-25T12:41:38.806Z,12.60
2023-03-25T12:44:11.938Z,13.57
2023-03-25T12:47:00.699Z,10.30
2023-03-25T12:49:45.641Z,11.43
2023-03-25T12:52:24.326Z,10.23
2023-03-25T12:55:04.622Z,10.07
2023-03-25T12:57:46.699Z,13.82
2023-03-25T13:00:26.392Z,9.43
2023-03-25T13:03:18.970Z,8.25
2023-03-25T13:05:51.614Z,8.38
2023-03-25T13:08:24.678Z,9.70
2023-03-25T13:11:02.663Z,10.57
2023-03-25T13:13:32.851Z,12.32
2023-03-25T13:16:09.259Z,12.30
2023-03-25T13:18:44.848Z,10.73
2023-03-25T13:21:19.010Z,9.73
2023-03-25T13:23:52.495Z,9.05
2023-03-25T13:26:23.856Z,11.82
2023-03-25T13:28:56.165Z,10.73
2023-03-25T13:31:28.366Z,9.88
2023-03-25T13:34:06.804Z,8.15
2023-03-25T13:36:38.746Z,9.68
2023-03-25T13:39:15.435Z,12.23
2023-03-25T13:41:45.853Z,12.05
2023-03-25T13:44:19.787Z,10.30
2023-03-25T13:46:51.430Z,12.75
2023-03-25T13:49:25.456Z,10.57
2023-03-25T13:51:53.439Z,10.75
2023-03-25T13:54:28.138Z,9.13
2023-03-25T13:57:16.055Z,7.72
2023-03-25T14:00:21.744Z,8.07
2023-03-25T14:03:20.298Z,10.00
2023-03-25T14:06:25.597Z,11.00
2023-03-25T14:09:22.889Z,7.32
2023-03-25T14:11:59.307Z,5.88
2023-03-25T14:14:27.583Z,5.85
2023-03-25T14:17:00.136Z,8.35
2023-03-25T14:19:32.784Z,9.30
2023-03-25T14:22:08.281Z,10.23
2023-03-25T14:24:37.629Z,7.03
2023-03-25T14:27:15.850Z,10.73
2023-03-25T14:29:47.249Z,10.35
2023-03-25T14:32:34.474Z,11.77
2023-03-25T14:35:41.372Z,10.52
2023-03-25T14:38:42.781Z,9.60
2023-03-25T14:41:10.747Z,9.85
2023-03-25T14:43:41.171Z,9.55
2023-03-25T14:46:19.322Z,10.80
2023-03-25T14:48:51.849Z,7.53
2023-03-25T14:51:45.927Z,8.15
2023-03-25T14:54:30.921Z,9.15
2023-03-25T14:57:04.260Z,11.27
2023-03-25T14:59:37.873Z,8.45
2023-03-25T15:02:12.487Z,16.60
2023-03-25T15:04:41.372Z,10.35
2023-03-25T15:07:14.249Z,9.10
2023-03-25T15:09:51.468Z,9.18
2023-03-25T15:12:24.118Z,10.10
2023-03-25T15:14:57.843Z,8.05
2023-03-25T15:17:44.759Z,10.95
2023-03-25T15:20:27.684Z,9.77
2023-03-25T15:23:32.607Z,11.75
2023-03-25T15:26:03.032Z,5.38
2023-03-25T15:29:05.340Z,7.18
2023-03-25T15:31:48.327Z,4.90
2023-03-25T15:37:16.563Z,8.05
2023-03-25T15:40:08.215Z,4.57
2023-03-25T15:42:47.746Z,5.13
2023-03-25T15:45:55.899Z,5.22
2023-03-25T15:48:46.222Z,8.05
2023-03-25T15:51:29.611Z,4.22
2023-03-25T15:54:22.029Z,5.47
2023-03-25T15:56:51.330Z,3.88
2023-03-25T15:59:31.636Z,4.28
2023-03-25T16:02:03.037Z,3.92
2023-03-25T16:04:40.095Z,5.63
2023-03-25T16:07:11.020Z,3.90
2023-03-25T16:09:44.639Z,5.57
2023-03-25T16:12:13.550Z,5.55
2023-03-25T16:14:44.343Z,4.70
2023-03-25T16:17:14.029Z,5.43
2023-03-25T16:19:45.424Z,7.60
2023-03-25T16:22:20.505Z,5.53
2023-03-25T16:24:50.754Z,6.07
2023-03-25T16:27:24.522Z,6.15
2023-03-25T16:29:54.763Z,6.32
2023-03-25T16:32:24.756Z,8.43
2023-03-25T16:34:54.236Z,8.85
2023-03-25T16:37:25.328Z,7.82
2023-03-25T16:39:54.657Z,11.20
2023-03-25T16:42:27.809Z,7.93
2023-03-25T16:44:56.072Z,5.47
2023-03-25T16:47:24.413Z,7.15
2023-03-25T16:49:56.870Z,7.38
2023-03-25T16:52:27.372Z,7.50
2023-03-25T16:55:15.540Z,8.38
2023-03-25T16:57:45.510Z,8.23
2023-03-25T17:00:19.080Z,8.98
2023-03-25T17:02:49.869Z,11.23
2023-03-25T17:05:22.574Z,11.23
2023-03-25T17:07:57.366Z,8.95
2023-03-25T17:10:27.639Z,12.27
2023-03-25T17:12:59.106Z,9.75
2023-03-25T17:15:28.332Z,9.05
2023-03-25T17:18:01.255Z,11.43
2023-03-25T17:20:37.501Z,6.72
2023-03-25T17:23:08.453Z,7.90
2023-03-25T17:25:38.132Z,8.38
2023-03-25T17:28:21.102Z,13.90
2023-03-25T17:30:48.990Z,11.25
2023-03-25T17:33:31.551Z,11.88
2023-03-25T17:36:03.187Z,11.40
2023-03-25T17:38:34.574Z,10.40
2023-03-25T17:41:04.298Z,11.25
2023-03-25T17:43:34.986Z,12.35
2023-03-25T17:46:05.845Z,14.75
2023-03-25T17:48:33.804Z,11.73
2023-03-25T17:51:03.375Z,12.27
2023-03-25T17:53:31.212Z,11.25
2023-03-25T17:55:59.327Z,11.18
2023-03-25T17:58:27.264Z,16.77
2023-03-25T18:00:55.117Z,11.25
2023-03-25T18:03:25.280Z,14.10
2023-03-25T18:05:54.408Z,12.60
2023-03-25T18:08:25.125Z,17.20
2023-03-25T18:10:53.844Z,15.48
2023-03-25T18:13:23.749Z,12.93
2023-03-25T18:15:52.657Z,13.27
2023-03-25T18:18:24.212Z,14.25
2023-03-25T18:20:53.335Z,14.70
2023-03-25T18:23:21.699Z,12.88
2023-03-25T18:25:51.220Z,13.63
2023-03-25T18:28:19.211Z,11.07
2023-03-25T18:30:51.946Z,13.55
2023-03-25T18:33:20.067Z,10.73
2023-03-25T18:35:48.623Z,14.93
2023-03-25T18:38:20.048Z,8.27
2023-03-25T18:40:48.785Z,14.88
2023-03-25T18:43:18.299Z,9.50
2023-03-25T18:45:47.066Z,13.10
2023-03-25T18:48:17.459Z,11.35
2023-03-25T18:50:52.302Z,10.63
2023-03-25T18:53:20.592Z,11.30
2023-03-25T18:55:48.393Z,9.43
2023-03-25T18:58:19.484Z,10.60
2023-03-25T19:00:48.978Z,9.50
2023-03-25T19:03:17.059Z,9.60
2023-03-25T19:05:46.225Z,8.82
2023-03-25T19:08:18.028Z,7.03
2023-03-25T19:10:47.360Z,9.40
2023-03-25T19:13:15.881Z,9.98
2023-03-25T19:15:45.092Z,9.95
2023-03-25T19:18:17.771Z,10.48
2023-03-25T19:20:47.116Z,11.68
2023-03-25T19:23:16.659Z,10.35
2023-03-25T19:25:45.761Z,11.82
2023-03-25T19:28:14.317Z,11.38
2023-03-25T19:30:43.764Z,9.60
2023-03-25T19:33:15.396Z,11.73
2023-03-25T19:35:44.265Z,15.75
2023-03-25T19:38:12.424Z,16.98
2023-03-25T19:40:40.245Z,11.43
2023-03-25T19:43:08.040Z,14.32
2023-03-25T19:45:36.271Z,16.75
2023-03-25T19:48:04.468Z,10.68
2023-03-25T19:50:35.187Z,14.98
2023-03-25T19:53:06.034Z,19.83
2023-03-25T19:55:34.108Z,16.05
2023-03-25T19:58:02.349Z,17.75
2023-03-25T20:00:31.706Z,16.17
2023-03-25T20:03:01.652Z,20.60
2023-03-25T20:05:32.034Z,18.67
2023-03-25T20:08:01.685Z,21.70
2023-03-25T20:10:31.536Z,14.38
2023-03-25T20:13:00.148Z,19.10
2023-03-25T20:15:28.049Z,18.45
2023-03-25T20:17:56.741Z,18.98
2023-03-25T20:20:25.712Z,17.95
2023-03-25T20:22:53.967Z,18.83
2023-03-25T20:25:23.150Z,20.60
2023-03-25T20:27:51.573Z,16.80
2023-03-25T20:30:20.576Z,21.02
2023-03-25T20:32:49.068Z,18.85
2023-03-25T20:35:18.077Z,23.48
2023-03-25T20:37:48.694Z,21.80
2023-03-25T20:40:18.370Z,22.63
2023-03-25T20:42:49.129Z,25.13
2023-03-25T20:45:18.305Z,24.00
2023-03-25T20:47:46.358Z,26.05
2023-03-25T20:50:16.303Z,27.73
2023-03-25T20:52:44.899Z,24.17
2023-03-25T20:55:13.204Z,32.17
2023-03-25T20:57:41.389Z,22.38
2023-03-25T21:00:14.299Z,21.73
2023-03-25T21:02:42.575Z,26.63
2023-03-25T21:05:10.832Z,26.55
2023-03-25T21:07:41.103Z,27.33
2023-03-25T21:10:10.652Z,20.08
2023-03-25T21:12:43.846Z,19.23
2023-03-25T21:15:15.344Z,17.67
2023-03-25T21:17:43.556Z,17.58
2023-03-25T21:20:12.635Z,21.40
2023-03-25T21:22:44.231Z,17.25
2023-03-25T21:25:14.294Z,22.70
2023-03-25T21:27:44.792Z,21.50
2023-03-25T21:30:15.241Z,20.23
2023-03-25T21:32:43.360Z,22.88
2023-03-25T21:35:11.423Z,20.08
2023-03-25T21:37:40.119Z,16.15
2023-03-25T21:40:11.352Z,19.10
2023-03-25T21:42:41.273Z,23.08
2023-03-25T21:45:12.007Z,25.45
2023-03-25T21:47:41.607Z,17.83
2023-03-25T21:50:11.854Z,20.55
2023-03-25T21:52:43.418Z,19.33
2023-03-25T21:55:12.608Z,20.58
2023-03-25T21:57:42.007Z,17.17
2023-03-25T22:00:14.328Z,15.77
2023-03-25T22:02:44.413Z,16.88
2023-03-25T22:05:13.294Z,21.80
2023-03-25T22:07:41.596Z,17.25
2023-03-25T22:10:11.052Z,19.42
2023-03-25T22:12:38.909Z,14.50
2023-03-25T22:15:08.183Z,19.83
2023-03-25T22:17:36.229Z,14.23
2023-03-25T22:20:06.631Z,22.60
2023-03-25T22:22:34.463Z,15.50
2023-03-25T22:25:03.261Z,16.73
2023-03-25T22:27:31.096Z,14.52
2023-03-25T22:29:58.952Z,17.23
2023-03-25T22:32:27.563Z,15.57
2023-03-25T22:34:55.433Z,16.48
2023-03-25T22:37:24.612Z,15.60
2023-03-25T22:39:52.338Z,16.83
2023-03-25T22:42:20.275Z,20.05
2023-03-25T22:44:48.369Z,12.80
2023-03-25T22:47:16.221Z,15.82
2023-03-25T22:49:43.991Z,17.92
2023-03-25T22:52:12.454Z,16.05
2023-03-25T22:54:41.661Z,18.50
2023-03-25T22:57:09.667Z,14.57
2023-03-25T22:59:39.053Z,18.45
2023-03-25T23:02:07.636Z,18.40
2023-03-25T23:04:35.557Z,16.25
2023-03-25T23:07:08.365Z,15.68
2023-03-25T23:09:42.191Z,14.70
2023-03-25T23:12:12.877Z,21.02
2023-03-25T23:14:42.561Z,17.40
2023-03-25T23:17:12.056Z,14.23
2023-03-25T23:19:40.038Z,20.02
2023-03-25T23:22:08.333Z,13.82
2023-03-25T23:24:37.017Z,16.48
2023-03-25T23:27:05.624Z,14.75
2023-03-25T23:29:36.598Z,16.67
2023-03-25T23:32:05.162Z,13.02
2023-03-25T23:34:33.871Z,14.95
2023-03-25T23:37:01.935Z,16.13
2023-03-25T23:39:30.142Z,16.27
2023-03-25T23:41:58.014Z,19.98
2023-03-25T23:44:26.077Z,14.48
2023-03-25T23:46:55.747Z,20.00
2023-03-25T23:49:24.061Z,14.18
2023-03-25T23:51:52.038Z,20.52
2023-03-25T23:54:19.834Z,15.65
2023-03-25T23:56:47.614Z,19.65
2023-03-25T23:59:15.733Z,15.50
